sensor_id;sensor_type;location;lat;lon;timestamp;P1;durP1;ratioP1;P2;durP2;ratioP2
72422;SDS011;60413;55.658;37.498;2023-03-21T00:00:59;6.95;;;3.60;;
72422;SDS011;60413;55.658;37.498;2023-03-21T00:04:37;11.77;;;3.67;;
72422;SDS011;60413;55.658;37.498;2023-03-21T00:07:49;7.20;;;3.50;;
72422;SDS011;60413;55.658;37.498;2023-03-21T00:11:15;10.30;;;3.22;;
72422;SDS011;60413;55.658;37.498;2023-03-21T00:17:57;7.53;;;3.13;;
72422;SDS011;60413;55.658;37.498;2023-03-21T00:20:40;8.90;;;3.28;;
72422;SDS011;60413;55.658;37.498;2023-03-21T00:23:31;12.55;;;3.67;;
72422;SDS011;60413;55.658;37.498;2023-03-21T00:26:21;8.57;;;3.50;;
72422;SDS011;60413;55.658;37.498;2023-03-21T00:29:13;8.52;;;3.08;;
72422;SDS011;60413;55.658;37.498;2023-03-21T00:31:50;9.25;;;3.35;;
72422;SDS011;60413;55.658;37.498;2023-03-21T00:34:38;9.70;;;3.38;;
72422;SDS011;60413;55.658;37.498;2023-03-21T00:37:14;6.88;;;3.25;;
72422;SDS011;60413;55.658;37.498;2023-03-21T00:39:52;15.25;;;3.40;;
72422;SDS011;60413;55.658;37.498;2023-03-21T00:42:35;8.60;;;3.28;;
72422;SDS011;60413;55.658;37.498;2023-03-21T00:45:09;7.55;;;3.55;;
72422;SDS011;60413;55.658;37.498;2023-03-21T00:47:39;5.43;;;3.28;;
72422;SDS011;60413;55.658;37.498;2023-03-21T00:50:19;8.80;;;3.65;;
72422;SDS011;60413;55.658;37.498;2023-03-21T00:52:48;11.40;;;3.53;;
72422;SDS011;60413;55.658;37.498;2023-03-21T00:55:27;12.88;;;4.32;;
72422;SDS011;60413;55.658;37.498;2023-03-21T00:58:00;10.65;;;4.22;;
72422;SDS011;60413;55.658;37.498;2023-03-21T01:00:27;10.05;;;3.90;;
72422;SDS011;60413;55.658;37.498;2023-03-21T01:03:10;16.45;;;3.53;;
72422;SDS011;60413;55.658;37.498;2023-03-21T01:05:49;11.18;;;3.70;;
72422;SDS011;60413;55.658;37.498;2023-03-21T01:08:32;12.73;;;4.05;;
72422;SDS011;60413;55.658;37.498;2023-03-21T01:11:05;8.20;;;3.58;;
72422;SDS011;60413;55.658;37.498;2023-03-21T01:16:26;13.82;;;4.15;;
72422;SDS011;60413;55.658;37.498;2023-03-21T01:19:26;11.30;;;3.80;;
72422;SDS011;60413;55.658;37.498;2023-03-21T01:22:06;10.73;;;4.35;;
72422;SDS011;60413;55.658;37.498;2023-03-21T01:24:36;15.27;;;4.30;;
72422;SDS011;60413;55.658;37.498;2023-03-21T01:27:09;7.93;;;3.88;;
72422;SDS011;60413;55.658;37.498;2023-03-21T01:29:44;12.93;;;4.47;;
72422;SDS011;60413;55.658;37.498;2023-03-21T01:32:28;9.98;;;4.38;;
72422;SDS011;60413;55.658;37.498;2023-03-21T01:35:21;9.52;;;4.13;;
72422;SDS011;60413;55.658;37.498;2023-03-21T01:40:52;10.32;;;4.70;;
72422;SDS011;60413;55.658;37.498;2023-03-21T01:43:34;16.30;;;4.30;;
72422;SDS011;60413;55.658;37.498;2023-03-21T01:49:42;13.15;;;4.70;;
72422;SDS011;60413;55.658;37.498;2023-03-21T01:52:48;16.42;;;5.90;;
72422;SDS011;60413;55.658;37.498;2023-03-21T01:55:34;10.55;;;4.35;;
72422;SDS011;60413;55.658;37.498;2023-03-21T01:58:34;12.98;;;3.78;;
72422;SDS011;60413;55.658;37.498;2023-03-21T02:01:35;9.90;;;4.50;;
72422;SDS011;60413;55.658;37.498;2023-03-21T02:04:18;15.00;;;5.30;;
72422;SDS011;60413;55.658;37.498;2023-03-21T02:07:14;13.55;;;5.22;;
72422;SDS011;60413;55.658;37.498;2023-03-21T02:10:09;8.73;;;4.50;;
72422;SDS011;60413;55.658;37.498;2023-03-21T02:13:14;8.32;;;3.67;;
72422;SDS011;60413;55.658;37.498;2023-03-21T02:20:19;13.98;;;4.85;;
72422;SDS011;60413;55.658;37.498;2023-03-21T02:34:23;13.38;;;5.35;;
72422;SDS011;60413;55.658;37.498;2023-03-21T02:37:16;14.77;;;4.30;;
72422;SDS011;60413;55.658;37.498;2023-03-21T02:40:17;10.55;;;4.30;;
72422;SDS011;60413;55.658;37.498;2023-03-21T02:46:40;8.57;;;3.83;;
72422;SDS011;60413;55.658;37.498;2023-03-21T02:53:36;8.02;;;4.30;;
72422;SDS011;60413;55.658;37.498;2023-03-21T02:56:34;10.77;;;4.20;;
72422;SDS011;60413;55.658;37.498;2023-03-21T02:59:10;12.55;;;4.13;;
72422;SDS011;60413;55.658;37.498;2023-03-21T03:02:18;9.40;;;4.50;;
72422;SDS011;60413;55.658;37.498;2023-03-21T03:05:30;11.73;;;4.43;;
72422;SDS011;60413;55.658;37.498;2023-03-21T03:08:34;13.02;;;4.93;;
72422;SDS011;60413;55.658;37.498;2023-03-21T03:11:42;12.15;;;4.93;;
72422;SDS011;60413;55.658;37.498;2023-03-21T03:14:49;9.25;;;4.32;;
72422;SDS011;60413;55.658;37.498;2023-03-21T03:31:10;11.65;;;4.28;;
72422;SDS011;60413;55.658;37.498;2023-03-21T03:35:04;16.38;;;4.72;;
72422;SDS011;60413;55.658;37.498;2023-03-21T03:38:48;12.15;;;4.40;;
72422;SDS011;60413;55.658;37.498;2023-03-21T03:42:12;13.13;;;4.43;;
72422;SDS011;60413;55.658;37.498;2023-03-21T03:45:51;14.15;;;4.47;;
72422;SDS011;60413;55.658;37.498;2023-03-21T03:48:42;15.98;;;4.45;;
72422;SDS011;60413;55.658;37.498;2023-03-21T03:52:32;16.52;;;5.28;;
72422;SDS011;60413;55.658;37.498;2023-03-21T03:58:43;9.07;;;4.77;;
72422;SDS011;60413;55.658;37.498;2023-03-21T04:02:00;16.85;;;6.80;;
72422;SDS011;60413;55.658;37.498;2023-03-21T04:05:48;14.15;;;5.43;;
72422;SDS011;60413;55.658;37.498;2023-03-21T04:16:18;21.42;;;7.15;;
72422;SDS011;60413;55.658;37.498;2023-03-21T04:19:34;17.85;;;6.30;;
72422;SDS011;60413;55.658;37.498;2023-03-21T04:26:14;19.60;;;6.28;;
72422;SDS011;60413;55.658;37.498;2023-03-21T04:29:09;16.85;;;6.20;;
72422;SDS011;60413;55.658;37.498;2023-03-21T04:32:31;20.83;;;7.05;;
72422;SDS011;60413;55.658;37.498;2023-03-21T04:42:26;22.63;;;8.60;;
72422;SDS011;60413;55.658;37.498;2023-03-21T04:46:11;26.52;;;7.72;;
72422;SDS011;60413;55.658;37.498;2023-03-21T04:53:37;17.13;;;7.68;;
72422;SDS011;60413;55.658;37.498;2023-03-21T04:56:16;18.13;;;6.97;;
72422;SDS011;60413;55.658;37.498;2023-03-21T05:03:13;17.08;;;5.78;;
72422;SDS011;60413;55.658;37.498;2023-03-21T05:05:54;13.73;;;5.90;;
72422;SDS011;60413;55.658;37.498;2023-03-21T05:13:06;20.65;;;7.93;;
72422;SDS011;60413;55.658;37.498;2023-03-21T05:15:58;14.20;;;5.25;;
72422;SDS011;60413;55.658;37.498;2023-03-21T05:22:14;18.77;;;6.00;;
72422;SDS011;60413;55.658;37.498;2023-03-21T05:36:15;13.77;;;5.40;;
72422;SDS011;60413;55.658;37.498;2023-03-21T05:39:54;13.82;;;5.13;;
72422;SDS011;60413;55.658;37.498;2023-03-21T05:42:53;11.88;;;5.10;;
72422;SDS011;60413;55.658;37.498;2023-03-21T05:46:37;11.65;;;5.43;;
72422;SDS011;60413;55.658;37.498;2023-03-21T05:49:55;14.45;;;4.63;;
72422;SDS011;60413;55.658;37.498;2023-03-21T05:52:41;11.82;;;5.20;;
72422;SDS011;60413;55.658;37.498;2023-03-21T06:26:06;10.00;;;4.85;;
72422;SDS011;60413;55.658;37.498;2023-03-21T06:31:38;15.15;;;6.15;;
72422;SDS011;60413;55.658;37.498;2023-03-21T06:40:36;15.77;;;5.68;;
72422;SDS011;60413;55.658;37.498;2023-03-21T06:43:48;12.15;;;5.75;;
72422;SDS011;60413;55.658;37.498;2023-03-21T06:49:38;12.63;;;6.03;;
72422;SDS011;60413;55.658;37.498;2023-03-21T06:52:31;12.75;;;5.30;;
72422;SDS011;60413;55.658;37.498;2023-03-21T06:55:26;14.70;;;5.60;;
72422;SDS011;60413;55.658;37.498;2023-03-21T07:32:06;10.63;;;5.15;;
72422;SDS011;60413;55.658;37.498;2023-03-21T07:44:21;13.18;;;6.53;;
72422;SDS011;60413;55.658;37.498;2023-03-21T07:47:26;11.65;;;6.00;;
72422;SDS011;60413;55.658;37.498;2023-03-21T07:50:05;11.75;;;5.78;;
72422;SDS011;60413;55.658;37.498;2023-03-21T07:52:36;10.82;;;5.63;;
72422;SDS011;60413;55.658;37.498;2023-03-21T07:55:06;10.30;;;5.18;;
72422;SDS011;60413;55.658;37.498;2023-03-21T07:57:35;13.02;;;5.70;;
72422;SDS011;60413;55.658;37.498;2023-03-21T08:00:07;13.23;;;5.05;;
72422;SDS011;60413;55.658;37.498;2023-03-21T08:02:47;14.13;;;6.10;;
72422;SDS011;60413;55.658;37.498;2023-03-21T08:05:21;15.70;;;6.47;;
72422;SDS011;60413;55.658;37.498;2023-03-21T08:07:50;13.13;;;6.30;;
72422;SDS011;60413;55.658;37.498;2023-03-21T08:10:42;11.23;;;5.25;;
72422;SDS011;60413;55.658;37.498;2023-03-21T08:13:33;11.55;;;5.20;;
72422;SDS011;60413;55.658;37.498;2023-03-21T08:16:55;10.13;;;5.63;;
72422;SDS011;60413;55.658;37.498;2023-03-21T08:19:58;16.23;;;6.80;;
72422;SDS011;60413;55.658;37.498;2023-03-21T08:22:29;19.08;;;7.22;;
72422;SDS011;60413;55.658;37.498;2023-03-21T08:25:06;13.68;;;6.10;;
72422;SDS011;60413;55.658;37.498;2023-03-21T08:27:54;12.80;;;5.93;;
72422;SDS011;60413;55.658;37.498;2023-03-21T08:30:31;17.73;;;5.82;;
72422;SDS011;60413;55.658;37.498;2023-03-21T08:33:06;12.85;;;6.28;;
72422;SDS011;60413;55.658;37.498;2023-03-21T08:35:53;15.38;;;5.57;;
72422;SDS011;60413;55.658;37.498;2023-03-21T08:38:35;12.70;;;5.95;;
72422;SDS011;60413;55.658;37.498;2023-03-21T08:41:06;13.63;;;6.05;;
72422;SDS011;60413;55.658;37.498;2023-03-21T08:43:35;15.20;;;5.72;;
72422;SDS011;60413;55.658;37.498;2023-03-21T08:46:19;14.05;;;4.97;;
72422;SDS011;60413;55.658;37.498;2023-03-21T08:48:51;11.10;;;4.72;;
72422;SDS011;60413;55.658;37.498;2023-03-21T08:51:21;12.43;;;5.20;;
72422;SDS011;60413;55.658;37.498;2023-03-21T08:53:54;10.10;;;5.00;;
72422;SDS011;60413;55.658;37.498;2023-03-21T08:56:48;8.70;;;4.40;;
72422;SDS011;60413;55.658;37.498;2023-03-21T08:59:22;10.75;;;4.82;;
72422;SDS011;60413;55.658;37.498;2023-03-21T09:01:52;11.75;;;4.80;;
72422;SDS011;60413;55.658;37.498;2023-03-21T09:04:29;10.68;;;5.03;;
72422;SDS011;60413;55.658;37.498;2023-03-21T09:06:59;10.05;;;4.60;;
72422;SDS011;60413;55.658;37.498;2023-03-21T09:13:27;10.32;;;5.10;;
72422;SDS011;60413;55.658;37.498;2023-03-21T09:16:28;8.57;;;3.90;;
72422;SDS011;60413;55.658;37.498;2023-03-21T09:19:06;10.48;;;4.30;;
72422;SDS011;60413;55.658;37.498;2023-03-21T09:21:55;9.07;;;4.32;;
72422;SDS011;60413;55.658;37.498;2023-03-21T09:24:35;11.25;;;5.43;;
72422;SDS011;60413;55.658;37.498;2023-03-21T09:27:06;10.00;;;4.30;;
72422;SDS011;60413;55.658;37.498;2023-03-21T09:30:13;13.07;;;4.65;;
72422;SDS011;60413;55.658;37.498;2023-03-21T09:32:48;9.27;;;5.03;;
72422;SDS011;60413;55.658;37.498;2023-03-21T09:35:18;11.55;;;5.28;;
72422;SDS011;60413;55.658;37.498;2023-03-21T09:38:15;11.82;;;5.63;;
72422;SDS011;60413;55.658;37.498;2023-03-21T09:40:56;7.57;;;4.30;;
72422;SDS011;60413;55.658;37.498;2023-03-21T09:47:08;9.60;;;3.97;;
72422;SDS011;60413;55.658;37.498;2023-03-21T09:50:25;6.25;;;3.42;;
72422;SDS011;60413;55.658;37.498;2023-03-21T09:56:20;6.65;;;3.33;;
72422;SDS011;60413;55.658;37.498;2023-03-21T09:58:55;8.93;;;5.43;;
72422;SDS011;60413;55.658;37.498;2023-03-21T10:01:29;8.70;;;3.83;;
72422;SDS011;60413;55.658;37.498;2023-03-21T10:04:07;9.13;;;3.72;;
72422;SDS011;60413;55.658;37.498;2023-03-21T10:06:54;7.85;;;4.47;;
72422;SDS011;60413;55.658;37.498;2023-03-21T10:09:31;9.65;;;3.90;;
72422;SDS011;60413;55.658;37.498;2023-03-21T10:12:11;7.43;;;4.00;;
72422;SDS011;60413;55.658;37.498;2023-03-21T10:14:47;6.60;;;3.63;;
72422;SDS011;60413;55.658;37.498;2023-03-21T10:17:39;6.82;;;3.90;;
72422;SDS011;60413;55.658;37.498;2023-03-21T10:23:12;8.65;;;3.33;;
72422;SDS011;60413;55.658;37.498;2023-03-21T10:25:45;6.20;;;3.15;;
72422;SDS011;60413;55.658;37.498;2023-03-21T10:28:37;8.88;;;4.03;;
72422;SDS011;60413;55.658;37.498;2023-03-21T10:31:28;6.53;;;3.80;;
72422;SDS011;60413;55.658;37.498;2023-03-21T10:33:57;6.57;;;3.75;;
72422;SDS011;60413;55.658;37.498;2023-03-21T10:37:05;11.98;;;3.95;;
72422;SDS011;60413;55.658;37.498;2023-03-21T10:39:38;7.15;;;3.72;;
72422;SDS011;60413;55.658;37.498;2023-03-21T10:42:16;8.30;;;3.65;;
72422;SDS011;60413;55.658;37.498;2023-03-21T10:45:03;9.55;;;4.57;;
72422;SDS011;60413;55.658;37.498;2023-03-21T10:47:55;9.03;;;4.57;;
72422;SDS011;60413;55.658;37.498;2023-03-21T10:50:36;10.05;;;5.10;;
72422;SDS011;60413;55.658;37.498;2023-03-21T10:53:12;7.90;;;4.25;;
72422;SDS011;60413;55.658;37.498;2023-03-21T10:56:00;8.20;;;4.25;;
72422;SDS011;60413;55.658;37.498;2023-03-21T10:58:48;8.10;;;4.13;;
72422;SDS011;60413;55.658;37.498;2023-03-21T11:01:40;9.10;;;4.07;;
72422;SDS011;60413;55.658;37.498;2023-03-21T11:04:30;7.35;;;3.60;;
72422;SDS011;60413;55.658;37.498;2023-03-21T11:07:12;8.48;;;3.80;;
72422;SDS011;60413;55.658;37.498;2023-03-21T11:09:54;8.80;;;4.43;;
72422;SDS011;60413;55.658;37.498;2023-03-21T11:15:20;10.32;;;3.30;;
72422;SDS011;60413;55.658;37.498;2023-03-21T11:18:12;8.45;;;3.40;;
72422;SDS011;60413;55.658;37.498;2023-03-21T11:24:01;8.07;;;2.85;;
72422;SDS011;60413;55.658;37.498;2023-03-21T11:26:41;4.95;;;2.63;;
72422;SDS011;60413;55.658;37.498;2023-03-21T11:29:34;6.88;;;3.17;;
72422;SDS011;60413;55.658;37.498;2023-03-21T11:32:30;6.90;;;2.90;;
72422;SDS011;60413;55.658;37.498;2023-03-21T11:35:18;6.15;;;2.60;;
72422;SDS011;60413;55.658;37.498;2023-03-21T11:41:31;7.85;;;3.38;;
72422;SDS011;60413;55.658;37.498;2023-03-21T11:44:42;10.48;;;4.57;;
72422;SDS011;60413;55.658;37.498;2023-03-21T11:47:33;10.68;;;4.07;;
72422;SDS011;60413;55.658;37.498;2023-03-21T11:50:19;10.23;;;4.32;;
72422;SDS011;60413;55.658;37.498;2023-03-21T11:56:15;8.82;;;2.78;;
72422;SDS011;60413;55.658;37.498;2023-03-21T11:59:04;6.18;;;2.28;;
72422;SDS011;60413;55.658;37.498;2023-03-21T12:02:12;6.80;;;3.22;;
72422;SDS011;60413;55.658;37.498;2023-03-21T12:05:21;5.50;;;3.00;;
72422;SDS011;60413;55.658;37.498;2023-03-21T12:17:27;4.75;;;2.58;;
72422;SDS011;60413;55.658;37.498;2023-03-21T12:22:54;6.72;;;2.70;;
72422;SDS011;60413;55.658;37.498;2023-03-21T12:25:46;7.03;;;2.53;;
72422;SDS011;60413;55.658;37.498;2023-03-21T12:28:51;8.70;;;2.10;;
72422;SDS011;60413;55.658;37.498;2023-03-21T12:43:26;9.65;;;2.95;;
72422;SDS011;60413;55.658;37.498;2023-03-21T12:51:41;5.10;;;2.45;;
72422;SDS011;60413;55.658;37.498;2023-03-21T12:54:26;6.88;;;2.95;;
72422;SDS011;60413;55.658;37.498;2023-03-21T12:57:14;7.20;;;2.80;;
72422;SDS011;60413;55.658;37.498;2023-03-21T13:00:21;6.70;;;2.95;;
72422;SDS011;60413;55.658;37.498;2023-03-21T13:06:47;7.40;;;2.83;;
72422;SDS011;60413;55.658;37.498;2023-03-21T13:09:27;5.20;;;2.35;;
72422;SDS011;60413;55.658;37.498;2023-03-21T13:12:47;9.02;;;2.70;;
72422;SDS011;60413;55.658;37.498;2023-03-21T13:15:29;4.68;;;2.50;;
72422;SDS011;60413;55.658;37.498;2023-03-21T13:21:03;7.05;;;3.03;;
72422;SDS011;60413;55.658;37.498;2023-03-21T13:23:54;4.63;;;2.20;;
72422;SDS011;60413;55.658;37.498;2023-03-21T13:26:49;6.35;;;2.50;;
72422;SDS011;60413;55.658;37.498;2023-03-21T13:29:58;3.97;;;2.25;;
72422;SDS011;60413;55.658;37.498;2023-03-21T13:32:43;7.70;;;2.53;;
72422;SDS011;60413;55.658;37.498;2023-03-21T13:35:23;4.82;;;2.33;;
72422;SDS011;60413;55.658;37.498;2023-03-21T13:40:59;6.35;;;2.60;;
72422;SDS011;60413;55.658;37.498;2023-03-21T13:43:50;8.35;;;3.20;;
72422;SDS011;60413;55.658;37.498;2023-03-21T13:46:58;11.68;;;3.03;;
72422;SDS011;60413;55.658;37.498;2023-03-21T13:49:39;7.10;;;3.05;;
72422;SDS011;60413;55.658;37.498;2023-03-21T13:52:24;7.93;;;3.03;;
72422;SDS011;60413;55.658;37.498;2023-03-21T13:55:28;6.78;;;3.00;;
72422;SDS011;60413;55.658;37.498;2023-03-21T14:01:38;7.90;;;2.78;;
72422;SDS011;60413;55.658;37.498;2023-03-21T14:04:43;9.15;;;2.75;;
72422;SDS011;60413;55.658;37.498;2023-03-21T14:07:54;7.50;;;2.90;;
72422;SDS011;60413;55.658;37.498;2023-03-21T14:10:33;6.80;;;2.97;;
72422;SDS011;60413;55.658;37.498;2023-03-21T14:16:09;8.40;;;3.65;;
72422;SDS011;60413;55.658;37.498;2023-03-21T14:19:00;6.43;;;3.00;;
72422;SDS011;60413;55.658;37.498;2023-03-21T14:21:36;8.55;;;2.90;;
72422;SDS011;60413;55.658;37.498;2023-03-21T14:24:05;6.22;;;3.15;;
72422;SDS011;60413;55.658;37.498;2023-03-21T14:26:39;11.80;;;3.75;;
72422;SDS011;60413;55.658;37.498;2023-03-21T14:29:28;7.38;;;3.67;;
72422;SDS011;60413;55.658;37.498;2023-03-21T14:32:31;11.02;;;2.85;;
72422;SDS011;60413;55.658;37.498;2023-03-21T14:35:16;6.47;;;2.60;;
72422;SDS011;60413;55.658;37.498;2023-03-21T14:37:44;8.45;;;3.15;;
72422;SDS011;60413;55.658;37.498;2023-03-21T14:40:52;5.43;;;2.53;;
72422;SDS011;60413;55.658;37.498;2023-03-21T14:43:56;6.22;;;2.60;;
72422;SDS011;60413;55.658;37.498;2023-03-21T14:46:36;5.70;;;2.65;;
72422;SDS011;60413;55.658;37.498;2023-03-21T14:49:25;9.10;;;2.90;;
72422;SDS011;60413;55.658;37.498;2023-03-21T14:52:09;6.82;;;3.08;;
72422;SDS011;60413;55.658;37.498;2023-03-21T14:55:19;5.72;;;2.90;;
72422;SDS011;60413;55.658;37.498;2023-03-21T14:57:47;8.88;;;3.22;;
72422;SDS011;60413;55.658;37.498;2023-03-21T15:00:46;13.27;;;3.75;;
72422;SDS011;60413;55.658;37.498;2023-03-21T15:03:41;9.02;;;3.65;;
72422;SDS011;60413;55.658;37.498;2023-03-21T15:06:18;11.75;;;3.60;;
72422;SDS011;60413;55.658;37.498;2023-03-21T15:09:00;7.70;;;3.13;;
72422;SDS011;60413;55.658;37.498;2023-03-21T15:11:48;9.27;;;3.42;;
72422;SDS011;60413;55.658;37.498;2023-03-21T15:14:34;7.63;;;3.60;;
72422;SDS011;60413;55.658;37.498;2023-03-21T15:17:17;13.73;;;3.97;;
72422;SDS011;60413;55.658;37.498;2023-03-21T15:20:06;10.88;;;3.67;;
72422;SDS011;60413;55.658;37.498;2023-03-21T15:22:43;9.85;;;4.03;;
72422;SDS011;60413;55.658;37.498;2023-03-21T15:25:28;7.25;;;3.35;;
72422;SDS011;60413;55.658;37.498;2023-03-21T15:28:03;10.18;;;2.97;;
72422;SDS011;60413;55.658;37.498;2023-03-21T15:30:30;10.52;;;3.05;;
72422;SDS011;60413;55.658;37.498;2023-03-21T15:33:04;6.72;;;3.55;;
72422;SDS011;60413;55.658;37.498;2023-03-21T15:35:56;10.98;;;3.33;;
72422;SDS011;60413;55.658;37.498;2023-03-21T15:38:29;7.53;;;3.50;;
72422;SDS011;60413;55.658;37.498;2023-03-21T15:46:51;12.80;;;4.10;;
72422;SDS011;60413;55.658;37.498;2023-03-21T15:49:26;11.63;;;3.40;;
72422;SDS011;60413;55.658;37.498;2023-03-21T15:52:10;11.88;;;3.40;;
72422;SDS011;60413;55.658;37.498;2023-03-21T15:54:46;13.27;;;3.58;;
72422;SDS011;60413;55.658;37.498;2023-03-21T15:57:23;12.15;;;3.80;;
72422;SDS011;60413;55.658;37.498;2023-03-21T16:00:01;8.52;;;3.25;;
72422;SDS011;60413;55.658;37.498;2023-03-21T16:02:39;10.60;;;4.47;;
72422;SDS011;60413;55.658;37.498;2023-03-21T16:05:26;9.57;;;3.90;;
72422;SDS011;60413;55.658;37.498;2023-03-21T16:07:59;9.55;;;3.90;;
72422;SDS011;60413;55.658;37.498;2023-03-21T16:11:06;12.18;;;4.22;;
72422;SDS011;60413;55.658;37.498;2023-03-21T16:13:59;8.35;;;3.50;;
72422;SDS011;60413;55.658;37.498;2023-03-21T16:16:30;13.02;;;5.28;;
72422;SDS011;60413;55.658;37.498;2023-03-21T16:19:06;10.32;;;3.65;;
72422;SDS011;60413;55.658;37.498;2023-03-21T16:21:46;10.02;;;3.92;;
72422;SDS011;60413;55.658;37.498;2023-03-21T16:27:22;9.82;;;4.13;;
72422;SDS011;60413;55.658;37.498;2023-03-21T16:29:54;7.85;;;3.30;;
72422;SDS011;60413;55.658;37.498;2023-03-21T16:32:44;10.77;;;3.38;;
72422;SDS011;60413;55.658;37.498;2023-03-21T16:35:15;8.82;;;3.55;;
72422;SDS011;60413;55.658;37.498;2023-03-21T16:37:50;11.23;;;3.55;;
72422;SDS011;60413;55.658;37.498;2023-03-21T16:50:09;8.75;;;3.72;;
72422;SDS011;60413;55.658;37.498;2023-03-21T16:56:56;8.77;;;3.65;;
72422;SDS011;60413;55.658;37.498;2023-03-21T16:59:30;14.02;;;4.40;;
72422;SDS011;60413;55.658;37.498;2023-03-21T17:02:10;10.63;;;4.45;;
72422;SDS011;60413;55.658;37.498;2023-03-21T17:08:23;16.27;;;4.30;;
72422;SDS011;60413;55.658;37.498;2023-03-21T17:24:19;9.90;;;3.90;;
72422;SDS011;60413;55.658;37.498;2023-03-21T17:27:37;14.65;;;4.75;;
72422;SDS011;60413;55.658;37.498;2023-03-21T17:35:34;11.48;;;4.40;;
72422;SDS011;60413;55.658;37.498;2023-03-21T17:38:40;11.85;;;5.45;;
72422;SDS011;60413;55.658;37.498;2023-03-21T17:46:02;14.05;;;6.15;;
72422;SDS011;60413;55.658;37.498;2023-03-21T17:49:19;16.10;;;7.25;;
72422;SDS011;60413;55.658;37.498;2023-03-21T17:52:16;15.00;;;6.85;;
72422;SDS011;60413;55.658;37.498;2023-03-21T18:00:23;18.65;;;8.07;;
72422;SDS011;60413;55.658;37.498;2023-03-21T18:03:51;22.27;;;9.80;;
72422;SDS011;60413;55.658;37.498;2023-03-21T18:06:48;19.52;;;9.73;;
72422;SDS011;60413;55.658;37.498;2023-03-21T18:13:49;22.67;;;9.95;;
72422;SDS011;60413;55.658;37.498;2023-03-21T18:16:57;19.90;;;10.10;;
72422;SDS011;60413;55.658;37.498;2023-03-21T18:20:12;22.75;;;11.20;;
72422;SDS011;60413;55.658;37.498;2023-03-21T18:23:01;27.02;;;11.40;;
72422;SDS011;60413;55.658;37.498;2023-03-21T18:25:27;29.20;;;13.07;;
72422;SDS011;60413;55.658;37.498;2023-03-21T18:27:56;24.40;;;11.48;;
72422;SDS011;60413;55.658;37.498;2023-03-21T18:30:28;25.67;;;11.50;;
72422;SDS011;60413;55.658;37.498;2023-03-21T18:32:55;24.40;;;12.10;;
72422;SDS011;60413;55.658;37.498;2023-03-21T18:35:21;27.00;;;12.38;;
72422;SDS011;60413;55.658;37.498;2023-03-21T18:38:28;28.77;;;12.70;;
72422;SDS011;60413;55.658;37.498;2023-03-21T18:41:16;29.60;;;11.88;;
72422;SDS011;60413;55.658;37.498;2023-03-21T18:44:45;27.65;;;12.95;;
72422;SDS011;60413;55.658;37.498;2023-03-21T18:47:56;35.80;;;14.23;;
72422;SDS011;60413;55.658;37.498;2023-03-21T18:50:35;28.10;;;13.13;;
72422;SDS011;60413;55.658;37.498;2023-03-21T18:53:12;31.13;;;13.48;;
72422;SDS011;60413;55.658;37.498;2023-03-21T18:56:01;30.67;;;13.63;;
72422;SDS011;60413;55.658;37.498;2023-03-21T18:58:56;26.35;;;11.73;;
72422;SDS011;60413;55.658;37.498;2023-03-21T19:02:10;28.27;;;12.93;;
72422;SDS011;60413;55.658;37.498;2023-03-21T19:06:17;28.60;;;12.80;;
72422;SDS011;60413;55.658;37.498;2023-03-21T19:08:46;28.48;;;13.20;;
72422;SDS011;60413;55.658;37.498;2023-03-21T19:11:15;31.67;;;13.05;;
72422;SDS011;60413;55.658;37.498;2023-03-21T19:13:54;27.67;;;12.55;;
72422;SDS011;60413;55.658;37.498;2023-03-21T19:16:24;29.23;;;12.60;;
72422;SDS011;60413;55.658;37.498;2023-03-21T19:19:13;29.42;;;12.10;;
72422;SDS011;60413;55.658;37.498;2023-03-21T19:22:00;27.52;;;13.00;;
72422;SDS011;60413;55.658;37.498;2023-03-21T19:24:57;27.48;;;11.55;;
72422;SDS011;60413;55.658;37.498;2023-03-21T19:27:59;26.55;;;12.32;;
72422;SDS011;60413;55.658;37.498;2023-03-21T19:30:44;28.70;;;13.13;;
72422;SDS011;60413;55.658;37.498;2023-03-21T19:33:35;31.13;;;11.40;;
72422;SDS011;60413;55.658;37.498;2023-03-21T19:37:10;23.75;;;11.57;;
72422;SDS011;60413;55.658;37.498;2023-03-21T19:40:05;24.77;;;10.70;;
72422;SDS011;60413;55.658;37.498;2023-03-21T19:42:53;30.45;;;12.20;;
72422;SDS011;60413;55.658;37.498;2023-03-21T19:45:22;21.58;;;10.48;;
72422;SDS011;60413;55.658;37.498;2023-03-21T19:47:53;26.25;;;11.25;;
72422;SDS011;60413;55.658;37.498;2023-03-21T19:50:20;25.88;;;10.73;;
72422;SDS011;60413;55.658;37.498;2023-03-21T19:52:54;26.17;;;10.70;;
72422;SDS011;60413;55.658;37.498;2023-03-21T19:55:25;23.40;;;10.40;;
72422;SDS011;60413;55.658;37.498;2023-03-21T19:57:56;29.65;;;10.40;;
72422;SDS011;60413;55.658;37.498;2023-03-21T20:00:24;24.48;;;10.85;;
72422;SDS011;60413;55.658;37.498;2023-03-21T20:02:54;22.35;;;10.18;;
72422;SDS011;60413;55.658;37.498;2023-03-21T20:05:21;26.98;;;10.55;;
72422;SDS011;60413;55.658;37.498;2023-03-21T20:07:56;23.30;;;10.77;;
72422;SDS011;60413;55.658;37.498;2023-03-21T20:11:07;24.83;;;10.25;;
72422;SDS011;60413;55.658;37.498;2023-03-21T20:13:48;23.95;;;9.20;;
72422;SDS011;60413;55.658;37.498;2023-03-21T20:20:15;21.15;;;9.70;;
72422;SDS011;60413;55.658;37.498;2023-03-21T20:23:12;26.30;;;11.50;;
72422;SDS011;60413;55.658;37.498;2023-03-21T20:30:47;22.10;;;9.50;;
72422;SDS011;60413;55.658;37.498;2023-03-21T20:33:49;21.15;;;9.85;;
72422;SDS011;60413;55.658;37.498;2023-03-21T20:36:30;22.30;;;10.25;;
72422;SDS011;60413;55.658;37.498;2023-03-21T20:39:14;20.08;;;9.45;;
72422;SDS011;60413;55.658;37.498;2023-03-21T20:44:48;22.50;;;10.23;;
72422;SDS011;60413;55.658;37.498;2023-03-21T20:47:57;20.60;;;8.88;;
72422;SDS011;60413;55.658;37.498;2023-03-21T20:51:10;22.13;;;9.52;;
72422;SDS011;60413;55.658;37.498;2023-03-21T20:53:49;20.83;;;8.23;;
72422;SDS011;60413;55.658;37.498;2023-03-21T20:56:18;22.40;;;9.80;;
72422;SDS011;60413;55.658;37.498;2023-03-21T20:58:53;21.50;;;8.20;;
72422;SDS011;60413;55.658;37.498;2023-03-21T21:01:24;20.30;;;9.00;;
72422;SDS011;60413;55.658;37.498;2023-03-21T21:07:25;21.77;;;9.80;;
72422;SDS011;60413;55.658;37.498;2023-03-21T21:10:18;19.80;;;8.02;;
72422;SDS011;60413;55.658;37.498;2023-03-21T21:13:06;23.38;;;9.10;;
72422;SDS011;60413;55.658;37.498;2023-03-21T21:16:24;21.35;;;9.15;;
72422;SDS011;60413;55.658;37.498;2023-03-21T21:18:54;20.35;;;9.45;;
72422;SDS011;60413;55.658;37.498;2023-03-21T21:21:20;18.77;;;8.43;;
72422;SDS011;60413;55.658;37.498;2023-03-21T21:24:02;16.85;;;7.75;;
72422;SDS011;60413;55.658;37.498;2023-03-21T21:26:43;20.80;;;8.43;;
72422;SDS011;60413;55.658;37.498;2023-03-21T21:29:14;20.23;;;8.57;;
72422;SDS011;60413;55.658;37.498;2023-03-21T21:32:02;15.90;;;7.32;;
72422;SDS011;60413;55.658;37.498;2023-03-21T21:34:54;17.65;;;7.03;;
72422;SDS011;60413;55.658;37.498;2023-03-21T21:37:39;15.75;;;7.88;;
72422;SDS011;60413;55.658;37.498;2023-03-21T21:40:08;16.88;;;7.72;;
72422;SDS011;60413;55.658;37.498;2023-03-21T21:42:44;15.60;;;7.80;;
72422;SDS011;60413;55.658;37.498;2023-03-21T21:45:55;16.13;;;7.07;;
72422;SDS011;60413;55.658;37.498;2023-03-21T21:48:43;17.98;;;7.47;;
72422;SDS011;60413;55.658;37.498;2023-03-21T21:51:16;17.67;;;7.43;;
72422;SDS011;60413;55.658;37.498;2023-03-21T21:53:57;13.52;;;5.75;;
72422;SDS011;60413;55.658;37.498;2023-03-21T21:56:25;14.43;;;6.18;;